Lauren C — MTNU5 — position and weather

sailwx.info

Track history (hours):
 
Tides and Currents Weather Stations Pressure Air Temp Water Temp Dewpoint Dewpoint Depression Visibility Wind Speed Wind Dir Waves Ship Positions

Lauren C

Last reported at 2017-Nov-17 21:51 UTC. Time now 2017-Nov-24 20:44 UTC.
Position N 37°53' E 015°43'.

Length 90 m; draft 6.6 m.

Type: Cargo ship. MMSI: 235056239.

Date/timePositionNaut miles runAvg speedWind from/ knotsBaromVisibWave heightAir tempDewpointWater temp
2017-Nov-17 21:51N 37°53' E 015°43'410.6
2017-Nov-17 21:28N 37°56' E 015°39'510.5
2017-Nov-17 21:00N 37°59' E 015°34'510.5
2017-Nov-17 20:31N 38°04' E 015°34'611.5
2017-Nov-17 20:01N 38°10' E 015°35'510.9
2017-Nov-17 19:31N 38°15' E 015°38'4 7.4
2017-Nov-17 19:01N 38°19' E 015°37'510.7
2017-Nov-17 18:30N 38°20' E 015°31'611.1
2017-Nov-17 18:00N 38°20' E 015°24'611.2
2017-Nov-17 17:30N 38°20' E 015°17'611.1
2017-Nov-17 17:00N 38°20' E 015°09'611.2
2017-Nov-17 16:28N 38°20' E 015°02'5111.1
2017-Nov-17 11:53N 38°19' E 013°57'611.4
2017-Nov-17 11:24N 38°19' E 013°50'511.2
2017-Nov-17 11:00N 38°18' E 013°44'511.1
2017-Nov-17 10:30N 38°18' E 013°37'611.1
2017-Nov-17 10:00N 38°18' E 013°30'511.0
2017-Nov-17 09:30N 38°18' E 013°23'610.9
2017-Nov-17 09:00N 38°18' E 013°16'510.9
2017-Nov-17 08:30N 38°18' E 013°09'510.7
2017-Nov-17 08:00N 38°17' E 013°03'610.8
2017-Nov-17 07:27N 38°16' E 012°55'  
2017-Nov-13 23:00N 35°59' W 005°13'714.3
2017-Nov-13 22:30N 35°58' W 005°22'  
2017-Nov-09 17:41N 49°52' W 003°10'812.5
2017-Nov-09 17:03N 49°56' W 002°60'112.7
2017-Nov-09 16:58N 49°56' W 002°58'612.7
2017-Nov-09 16:28N 49°59' W 002°49'9910.0
2017-Nov-09 06:38N 50°27' W 000°21'212.4
2017-Nov-09 06:30N 50°28' W 000°18'612.4
2017-Nov-09 06:00N 50°29' W 000°09'612.5
2017-Nov-09 05:30N 50°31' E 000°00'612.4
2017-Nov-09 05:00N 50°33' E 000°09'712.2
2017-Nov-09 04:28N 50°34' E 000°19'611.9
2017-Nov-09 04:00N 50°36' E 000°28'611.5
2017-Nov-09 03:30N 50°38' E 000°36'611.1
2017-Nov-09 03:01N 50°41' E 000°44'510.9
2017-Nov-09 02:31N 50°44' E 000°51'510.7
2017-Nov-09 02:00N 50°47' E 000°57'1510.8
2017-Nov-09 00:39N 50°57' E 001°15'411.7
2017-Nov-09 00:20N 50°60' E 001°19'412.8
2017-Nov-09 00:01N 51°03' E 001°23'713.7
2017-Nov-08 23:30N 51°07' E 001°32'714.6
2017-Nov-08 23:00N 51°11' E 001°41'713.8
2017-Nov-08 22:30N 51°17' E 001°48'713.9
2017-Nov-08 22:00N 51°23' E 001°52'612.9
2017-Nov-08 21:30N 51°29' E 001°58'216 9.9
2017-Nov-07 23:46N 53°23' E 006°58'310.0
2017-Nov-07 23:30N 53°21' E 006°59'2 3.7
2017-Nov-07 23:00N 53°19' E 006°59'2 2.9
2017-Nov-07 22:29N 53°20' E 006°56'0 0.0
2017-Nov-07 21:59N 53°20' E 006°56'  
Track history (hours):
 
Tides and Currents Weather Stations Pressure Air Temp Water Temp Dewpoint Dewpoint Depression Visibility Wind Speed Wind Dir Waves Ship Positions

Lauren C

Last reported at 2017-Nov-17 21:51 UTC. Time now 2017-Nov-24 20:44 UTC.
Position N 37°53' E 015°43'.

Length 90 m; draft 6.6 m.

Type: Cargo ship. MMSI: 235056239.

Date/timePositionNaut miles runAvg speedWind from/ knotsBaromVisibWave heightAir tempDewpointWater temp
2017-Nov-17 21:51N 37°53' E 015°43'410.6
2017-Nov-17 21:28N 37°56' E 015°39'510.5
2017-Nov-17 21:00N 37°59' E 015°34'510.5
2017-Nov-17 20:31N 38°04' E 015°34'611.5
2017-Nov-17 20:01N 38°10' E 015°35'510.9
2017-Nov-17 19:31N 38°15' E 015°38'4 7.4
2017-Nov-17 19:01N 38°19' E 015°37'510.7
2017-Nov-17 18:30N 38°20' E 015°31'611.1
2017-Nov-17 18:00N 38°20' E 015°24'611.2
2017-Nov-17 17:30N 38°20' E 015°17'611.1
2017-Nov-17 17:00N 38°20' E 015°09'611.2
2017-Nov-17 16:28N 38°20' E 015°02'5111.1
2017-Nov-17 11:53N 38°19' E 013°57'611.4
2017-Nov-17 11:24N 38°19' E 013°50'511.2
2017-Nov-17 11:00N 38°18' E 013°44'511.1
2017-Nov-17 10:30N 38°18' E 013°37'611.1
2017-Nov-17 10:00N 38°18' E 013°30'511.0
2017-Nov-17 09:30N 38°18' E 013°23'610.9
2017-Nov-17 09:00N 38°18' E 013°16'510.9
2017-Nov-17 08:30N 38°18' E 013°09'510.7
2017-Nov-17 08:00N 38°17' E 013°03'610.8
2017-Nov-17 07:27N 38°16' E 012°55'  
2017-Nov-13 23:00N 35°59' W 005°13'714.3
2017-Nov-13 22:30N 35°58' W 005°22'  
2017-Nov-09 17:41N 49°52' W 003°10'812.5
2017-Nov-09 17:03N 49°56' W 002°60'112.7
2017-Nov-09 16:58N 49°56' W 002°58'612.7
2017-Nov-09 16:28N 49°59' W 002°49'9910.0
2017-Nov-09 06:38N 50°27' W 000°21'212.4
2017-Nov-09 06:30N 50°28' W 000°18'612.4
2017-Nov-09 06:00N 50°29' W 000°09'612.5
2017-Nov-09 05:30N 50°31' E 000°00'612.4
2017-Nov-09 05:00N 50°33' E 000°09'712.2
2017-Nov-09 04:28N 50°34' E 000°19'611.9
2017-Nov-09 04:00N 50°36' E 000°28'611.5
2017-Nov-09 03:30N 50°38' E 000°36'611.1
2017-Nov-09 03:01N 50°41' E 000°44'510.9
2017-Nov-09 02:31N 50°44' E 000°51'510.7
2017-Nov-09 02:00N 50°47' E 000°57'1510.8
2017-Nov-09 00:39N 50°57' E 001°15'411.7
2017-Nov-09 00:20N 50°60' E 001°19'412.8
2017-Nov-09 00:01N 51°03' E 001°23'713.7
2017-Nov-08 23:30N 51°07' E 001°32'714.6
2017-Nov-08 23:00N 51°11' E 001°41'713.8
2017-Nov-08 22:30N 51°17' E 001°48'713.9
2017-Nov-08 22:00N 51°23' E 001°52'612.9
2017-Nov-08 21:30N 51°29' E 001°58'216 9.9
2017-Nov-07 23:46N 53°23' E 006°58'310.0
2017-Nov-07 23:30N 53°21' E 006°59'2 3.7
2017-Nov-07 23:00N 53°19' E 006°59'2 2.9
2017-Nov-07 22:29N 53°20' E 006°56'0 0.0
2017-Nov-07 21:59N 53°20' E 006°56'  

Dump ship's entire track history